sensor_id;sensor_type;location;lat;lon;timestamp;temperature;humidity
12060;DHT22;6091;51.432;6.880;2023-08-07T00:02:13;25.00;46.20
12060;DHT22;6091;51.432;6.880;2023-08-07T00:04:42;25.00;46.20
12060;DHT22;6091;51.432;6.880;2023-08-07T00:07:09;25.00;46.20
12060;DHT22;6091;51.432;6.880;2023-08-07T00:09:36;25.00;46.20
12060;DHT22;6091;51.432;6.880;2023-08-07T00:12:05;25.00;46.20
12060;DHT22;6091;51.432;6.880;2023-08-07T00:14:32;25.00;46.20
12060;DHT22;6091;51.432;6.880;2023-08-07T00:16:59;25.00;46.20
12060;DHT22;6091;51.432;6.880;2023-08-07T00:19:26;24.90;46.10
12060;DHT22;6091;51.432;6.880;2023-08-07T00:21:53;25.00;46.20
12060;DHT22;6091;51.432;6.880;2023-08-07T00:24:20;24.90;46.20
12060;DHT22;6091;51.432;6.880;2023-08-07T00:26:47;25.00;46.20
12060;DHT22;6091;51.432;6.880;2023-08-07T00:29:14;24.90;46.10
12060;DHT22;6091;51.432;6.880;2023-08-07T00:31:41;24.90;46.20
12060;DHT22;6091;51.432;6.880;2023-08-07T00:34:08;24.90;46.20
12060;DHT22;6091;51.432;6.880;2023-08-07T00:36:36;24.90;46.20
12060;DHT22;6091;51.432;6.880;2023-08-07T00:39:03;24.90;46.20
12060;DHT22;6091;51.432;6.880;2023-08-07T00:41:30;24.90;46.20
12060;DHT22;6091;51.432;6.880;2023-08-07T00:43:57;24.90;46.20
12060;DHT22;6091;51.432;6.880;2023-08-07T00:46:24;24.90;46.20
12060;DHT22;6091;51.432;6.880;2023-08-07T00:48:53;24.90;46.20
12060;DHT22;6091;51.432;6.880;2023-08-07T00:51:21;24.90;46.20
12060;DHT22;6091;51.432;6.880;2023-08-07T00:53:50;24.90;46.20
12060;DHT22;6091;51.432;6.880;2023-08-07T00:56:18;24.90;46.20
12060;DHT22;6091;51.432;6.880;2023-08-07T00:58:45;24.90;46.20
12060;DHT22;6091;51.432;6.880;2023-08-07T01:01:13;24.90;46.20
12060;DHT22;6091;51.432;6.880;2023-08-07T01:03:40;24.90;46.20
12060;DHT22;6091;51.432;6.880;2023-08-07T01:06:07;24.90;46.20
12060;DHT22;6091;51.432;6.880;2023-08-07T01:08:34;24.90;46.20
12060;DHT22;6091;51.432;6.880;2023-08-07T01:11:18;24.90;46.20
12060;DHT22;6091;51.432;6.880;2023-08-07T01:16:55;24.90;46.30
12060;DHT22;6091;51.432;6.880;2023-08-07T01:19:28;24.90;46.20
12060;DHT22;6091;51.432;6.880;2023-08-07T01:22:08;24.90;46.20
12060;DHT22;6091;51.432;6.880;2023-08-07T01:24:38;24.90;46.30
12060;DHT22;6091;51.432;6.880;2023-08-07T01:35:44;24.80;46.20
12060;DHT22;6091;51.432;6.880;2023-08-07T01:38:15;24.80;46.20
12060;DHT22;6091;51.432;6.880;2023-08-07T01:40:43;24.80;46.20
12060;DHT22;6091;51.432;6.880;2023-08-07T01:43:11;24.80;46.20
12060;DHT22;6091;51.432;6.880;2023-08-07T01:45:38;24.80;46.30
12060;DHT22;6091;51.432;6.880;2023-08-07T01:48:05;24.80;46.20
12060;DHT22;6091;51.432;6.880;2023-08-07T01:50:32;24.80;46.30
12060;DHT22;6091;51.432;6.880;2023-08-07T01:53:00;24.80;46.30
12060;DHT22;6091;51.432;6.880;2023-08-07T01:55:29;24.80;46.30
12060;DHT22;6091;51.432;6.880;2023-08-07T01:57:56;24.80;46.90
12060;DHT22;6091;51.432;6.880;2023-08-07T02:00:23;24.80;46.30
12060;DHT22;6091;51.432;6.880;2023-08-07T02:02:50;24.80;46.30
12060;DHT22;6091;51.432;6.880;2023-08-07T02:05:17;24.80;46.30
12060;DHT22;6091;51.432;6.880;2023-08-07T02:07:44;24.80;46.30
12060;DHT22;6091;51.432;6.880;2023-08-07T02:10:11;24.80;46.30
12060;DHT22;6091;51.432;6.880;2023-08-07T02:12:39;24.70;46.20
12060;DHT22;6091;51.432;6.880;2023-08-07T02:15:07;24.80;46.30
12060;DHT22;6091;51.432;6.880;2023-08-07T02:17:34;24.80;46.30
12060;DHT22;6091;51.432;6.880;2023-08-07T02:20:05;24.80;46.30
12060;DHT22;6091;51.432;6.880;2023-08-07T02:22:32;24.80;46.40
12060;DHT22;6091;51.432;6.880;2023-08-07T02:24:59;24.70;46.20
12060;DHT22;6091;51.432;6.880;2023-08-07T02:27:26;24.80;46.30
12060;DHT22;6091;51.432;6.880;2023-08-07T02:29:53;24.70;46.20
12060;DHT22;6091;51.432;6.880;2023-08-07T02:32:20;24.70;46.20
12060;DHT22;6091;51.432;6.880;2023-08-07T02:34:47;24.70;46.20
12060;DHT22;6091;51.432;6.880;2023-08-07T02:37:14;24.70;46.20
12060;DHT22;6091;51.432;6.880;2023-08-07T02:39:42;24.70;46.30
12060;DHT22;6091;51.432;6.880;2023-08-07T02:42:09;24.70;46.20
12060;DHT22;6091;51.432;6.880;2023-08-07T02:44:39;24.70;46.20
12060;DHT22;6091;51.432;6.880;2023-08-07T02:47:08;24.50;46.10
12060;DHT22;6091;51.432;6.880;2023-08-07T02:49:35;24.70;46.30
12060;DHT22;6091;51.432;6.880;2023-08-07T02:52:05;24.70;46.20
12060;DHT22;6091;51.432;6.880;2023-08-07T02:54:33;24.70;46.20
12060;DHT22;6091;51.432;6.880;2023-08-07T02:57:00;24.70;46.30
12060;DHT22;6091;51.432;6.880;2023-08-07T02:59:27;24.70;46.30
12060;DHT22;6091;51.432;6.880;2023-08-07T03:01:54;24.70;46.30
12060;DHT22;6091;51.432;6.880;2023-08-07T03:04:21;24.70;46.30
12060;DHT22;6091;51.432;6.880;2023-08-07T03:06:51;24.70;46.30
12060;DHT22;6091;51.432;6.880;2023-08-07T03:09:19;24.70;46.30
12060;DHT22;6091;51.432;6.880;2023-08-07T03:11:46;24.70;46.30
12060;DHT22;6091;51.432;6.880;2023-08-07T03:14:12;24.70;46.30
12060;DHT22;6091;51.432;6.880;2023-08-07T03:16:39;24.70;46.30
12060;DHT22;6091;51.432;6.880;2023-08-07T03:19:06;24.70;46.30
12060;DHT22;6091;51.432;6.880;2023-08-07T03:21:33;24.70;46.30
12060;DHT22;6091;51.432;6.880;2023-08-07T03:24:00;24.70;46.30
12060;DHT22;6091;51.432;6.880;2023-08-07T03:26:27;24.70;46.30
12060;DHT22;6091;51.432;6.880;2023-08-07T03:28:54;24.70;46.30
12060;DHT22;6091;51.432;6.880;2023-08-07T03:31:21;24.70;46.40
12060;DHT22;6091;51.432;6.880;2023-08-07T03:33:48;24.70;46.40
12060;DHT22;6091;51.432;6.880;2023-08-07T03:36:15;24.60;46.30
12060;DHT22;6091;51.432;6.880;2023-08-07T03:38:42;24.70;46.40
12060;DHT22;6091;51.432;6.880;2023-08-07T03:41:09;24.70;46.40
12060;DHT22;6091;51.432;6.880;2023-08-07T03:43:36;24.70;46.40
12060;DHT22;6091;51.432;6.880;2023-08-07T03:46:03;24.60;46.30
12060;DHT22;6091;51.432;6.880;2023-08-07T03:48:31;24.70;46.40
12060;DHT22;6091;51.432;6.880;2023-08-07T03:51:06;24.70;46.40
12060;DHT22;6091;51.432;6.880;2023-08-07T03:53:41;24.60;46.40
12060;DHT22;6091;51.432;6.880;2023-08-07T03:56:08;24.70;46.40
12060;DHT22;6091;51.432;6.880;2023-08-07T03:58:35;24.70;46.40
12060;DHT22;6091;51.432;6.880;2023-08-07T04:01:02;24.60;46.90
12060;DHT22;6091;51.432;6.880;2023-08-07T04:03:29;24.60;46.30
12060;DHT22;6091;51.432;6.880;2023-08-07T04:05:57;24.70;46.40
12060;DHT22;6091;51.432;6.880;2023-08-07T04:08:24;24.60;46.30
12060;DHT22;6091;51.432;6.880;2023-08-07T04:10:58;24.60;46.30
12060;DHT22;6091;51.432;6.880;2023-08-07T04:13:29;24.60;46.30
12060;DHT22;6091;51.432;6.880;2023-08-07T04:15:58;24.60;46.30
12060;DHT22;6091;51.432;6.880;2023-08-07T04:18:25;24.70;46.40
12060;DHT22;6091;51.432;6.880;2023-08-07T04:20:54;24.60;46.30
12060;DHT22;6091;51.432;6.880;2023-08-07T04:23:22;24.60;46.30
12060;DHT22;6091;51.432;6.880;2023-08-07T04:25:51;24.60;46.30
12060;DHT22;6091;51.432;6.880;2023-08-07T04:28:19;24.60;46.30
12060;DHT22;6091;51.432;6.880;2023-08-07T04:30:49;24.60;46.30
12060;DHT22;6091;51.432;6.880;2023-08-07T04:33:19;24.60;46.30
12060;DHT22;6091;51.432;6.880;2023-08-07T04:35:46;24.60;46.30
12060;DHT22;6091;51.432;6.880;2023-08-07T04:38:15;24.60;46.30
12060;DHT22;6091;51.432;6.880;2023-08-07T04:40:46;24.60;46.30
12060;DHT22;6091;51.432;6.880;2023-08-07T04:43:15;24.60;46.40
12060;DHT22;6091;51.432;6.880;2023-08-07T04:45:44;24.60;46.30
12060;DHT22;6091;51.432;6.880;2023-08-07T04:48:12;24.60;46.30
12060;DHT22;6091;51.432;6.880;2023-08-07T04:50:43;24.60;46.30
12060;DHT22;6091;51.432;6.880;2023-08-07T04:53:10;24.60;46.30
12060;DHT22;6091;51.432;6.880;2023-08-07T04:55:38;24.60;46.30
12060;DHT22;6091;51.432;6.880;2023-08-07T04:58:05;24.60;46.40
12060;DHT22;6091;51.432;6.880;2023-08-07T05:00:32;24.60;46.40
12060;DHT22;6091;51.432;6.880;2023-08-07T05:02:59;24.60;46.30
12060;DHT22;6091;51.432;6.880;2023-08-07T05:05:28;24.60;46.30
12060;DHT22;6091;51.432;6.880;2023-08-07T05:07:55;24.60;46.30
12060;DHT22;6091;51.432;6.880;2023-08-07T05:10:22;24.60;46.30
12060;DHT22;6091;51.432;6.880;2023-08-07T05:12:49;24.60;46.40
12060;DHT22;6091;51.432;6.880;2023-08-07T05:15:25;24.60;46.40
12060;DHT22;6091;51.432;6.880;2023-08-07T05:17:52;24.60;46.40
12060;DHT22;6091;51.432;6.880;2023-08-07T05:20:20;24.60;46.40
12060;DHT22;6091;51.432;6.880;2023-08-07T05:22:47;24.60;46.30
12060;DHT22;6091;51.432;6.880;2023-08-07T05:25:15;24.60;46.30
12060;DHT22;6091;51.432;6.880;2023-08-07T05:27:47;24.60;46.30
12060;DHT22;6091;51.432;6.880;2023-08-07T05:30:14;24.60;46.30
12060;DHT22;6091;51.432;6.880;2023-08-07T05:32:41;24.60;46.30
12060;DHT22;6091;51.432;6.880;2023-08-07T05:35:09;24.60;46.30
12060;DHT22;6091;51.432;6.880;2023-08-07T05:37:36;24.50;46.30
12060;DHT22;6091;51.432;6.880;2023-08-07T05:40:05;24.60;46.40
12060;DHT22;6091;51.432;6.880;2023-08-07T05:42:33;24.60;46.40
12060;DHT22;6091;51.432;6.880;2023-08-07T05:45:01;24.60;46.40
12060;DHT22;6091;51.432;6.880;2023-08-07T05:47:29;24.60;46.50
12060;DHT22;6091;51.432;6.880;2023-08-07T05:49:56;24.70;46.60
12060;DHT22;6091;51.432;6.880;2023-08-07T05:52:23;24.70;46.60
12060;DHT22;6091;51.432;6.880;2023-08-07T05:54:50;24.70;46.60
12060;DHT22;6091;51.432;6.880;2023-08-07T05:57:18;24.80;46.70
12060;DHT22;6091;51.432;6.880;2023-08-07T05:59:45;24.90;46.70
12060;DHT22;6091;51.432;6.880;2023-08-07T06:02:12;25.00;47.00
12060;DHT22;6091;51.432;6.880;2023-08-07T06:04:39;25.00;46.70
12060;DHT22;6091;51.432;6.880;2023-08-07T06:07:07;25.10;46.70
12060;DHT22;6091;51.432;6.880;2023-08-07T06:09:35;25.20;46.70
12060;DHT22;6091;51.432;6.880;2023-08-07T06:12:02;25.30;46.70
12060;DHT22;6091;51.432;6.880;2023-08-07T06:14:30;25.40;46.60
12060;DHT22;6091;51.432;6.880;2023-08-07T06:16:58;25.40;46.50
12060;DHT22;6091;51.432;6.880;2023-08-07T06:19:27;25.50;46.50
12060;DHT22;6091;51.432;6.880;2023-08-07T06:21:58;25.60;46.50
12060;DHT22;6091;51.432;6.880;2023-08-07T06:24:26;25.60;46.40
12060;DHT22;6091;51.432;6.880;2023-08-07T06:26:53;25.70;46.40
12060;DHT22;6091;51.432;6.880;2023-08-07T06:29:20;25.80;46.40
12060;DHT22;6091;51.432;6.880;2023-08-07T06:31:47;25.80;46.30
12060;DHT22;6091;51.432;6.880;2023-08-07T06:34:18;25.80;46.30
12060;DHT22;6091;51.432;6.880;2023-08-07T06:36:45;25.90;46.30
12060;DHT22;6091;51.432;6.880;2023-08-07T06:39:12;25.90;46.20
12060;DHT22;6091;51.432;6.880;2023-08-07T06:41:41;26.00;46.20
12060;DHT22;6091;51.432;6.880;2023-08-07T06:44:08;26.00;46.20
12060;DHT22;6091;51.432;6.880;2023-08-07T06:46:35;26.00;46.10
12060;DHT22;6091;51.432;6.880;2023-08-07T06:49:02;26.00;46.10
12060;DHT22;6091;51.432;6.880;2023-08-07T06:51:29;26.10;46.10
12060;DHT22;6091;51.432;6.880;2023-08-07T06:53:56;26.10;46.00
12060;DHT22;6091;51.432;6.880;2023-08-07T06:56:23;26.10;46.00
12060;DHT22;6091;51.432;6.880;2023-08-07T06:58:50;26.20;46.00
12060;DHT22;6091;51.432;6.880;2023-08-07T07:01:17;26.20;45.90
12060;DHT22;6091;51.432;6.880;2023-08-07T07:03:44;26.10;45.90
12060;DHT22;6091;51.432;6.880;2023-08-07T07:06:13;26.20;45.90
12060;DHT22;6091;51.432;6.880;2023-08-07T07:08:40;26.20;45.80
12060;DHT22;6091;51.432;6.880;2023-08-07T07:11:07;26.20;45.80
12060;DHT22;6091;51.432;6.880;2023-08-07T07:13:35;26.20;45.80
12060;DHT22;6091;51.432;6.880;2023-08-07T07:16:02;26.20;45.80
12060;DHT22;6091;51.432;6.880;2023-08-07T07:18:30;26.20;45.80
12060;DHT22;6091;51.432;6.880;2023-08-07T07:20:58;26.20;45.80
12060;DHT22;6091;51.432;6.880;2023-08-07T07:23:27;26.20;45.80
12060;DHT22;6091;51.432;6.880;2023-08-07T07:25:54;26.20;45.80
12060;DHT22;6091;51.432;6.880;2023-08-07T07:28:23;26.20;45.80
12060;DHT22;6091;51.432;6.880;2023-08-07T07:30:50;26.20;45.80
12060;DHT22;6091;51.432;6.880;2023-08-07T07:33:17;26.20;45.80
12060;DHT22;6091;51.432;6.880;2023-08-07T07:35:44;26.20;45.80
12060;DHT22;6091;51.432;6.880;2023-08-07T07:38:11;26.20;45.80
12060;DHT22;6091;51.432;6.880;2023-08-07T07:40:38;26.20;45.80
12060;DHT22;6091;51.432;6.880;2023-08-07T07:43:06;26.20;46.00
12060;DHT22;6091;51.432;6.880;2023-08-07T07:45:33;26.20;45.80
12060;DHT22;6091;51.432;6.880;2023-08-07T07:48:03;26.20;45.70
12060;DHT22;6091;51.432;6.880;2023-08-07T07:50:32;26.20;45.80
12060;DHT22;6091;51.432;6.880;2023-08-07T07:53:00;26.20;45.90
12060;DHT22;6091;51.432;6.880;2023-08-07T07:55:27;26.20;45.80
12060;DHT22;6091;51.432;6.880;2023-08-07T07:57:55;26.10;45.80
12060;DHT22;6091;51.432;6.880;2023-08-07T08:00:22;26.10;45.80
12060;DHT22;6091;51.432;6.880;2023-08-07T08:02:53;26.10;45.80
12060;DHT22;6091;51.432;6.880;2023-08-07T08:05:21;26.10;45.80
12060;DHT22;6091;51.432;6.880;2023-08-07T08:07:48;26.10;45.80
12060;DHT22;6091;51.432;6.880;2023-08-07T08:10:16;26.10;45.90
12060;DHT22;6091;51.432;6.880;2023-08-07T08:12:43;26.10;45.90
12060;DHT22;6091;51.432;6.880;2023-08-07T08:15:10;26.10;45.90
12060;DHT22;6091;51.432;6.880;2023-08-07T08:17:37;26.10;45.90
12060;DHT22;6091;51.432;6.880;2023-08-07T08:20:05;26.10;46.00
12060;DHT22;6091;51.432;6.880;2023-08-07T08:22:33;26.10;46.00
12060;DHT22;6091;51.432;6.880;2023-08-07T08:25:00;26.10;46.00
12060;DHT22;6091;51.432;6.880;2023-08-07T08:27:28;26.10;46.00
12060;DHT22;6091;51.432;6.880;2023-08-07T08:29:55;26.10;46.00
12060;DHT22;6091;51.432;6.880;2023-08-07T08:32:22;26.10;46.00
12060;DHT22;6091;51.432;6.880;2023-08-07T08:34:49;26.10;46.00
12060;DHT22;6091;51.432;6.880;2023-08-07T08:37:17;26.10;46.10
12060;DHT22;6091;51.432;6.880;2023-08-07T08:39:44;26.10;46.10
12060;DHT22;6091;51.432;6.880;2023-08-07T08:42:11;26.10;46.10
12060;DHT22;6091;51.432;6.880;2023-08-07T08:44:51;26.10;46.10
12060;DHT22;6091;51.432;6.880;2023-08-07T08:47:21;26.10;46.20
12060;DHT22;6091;51.432;6.880;2023-08-07T08:50:02;26.20;46.30
12060;DHT22;6091;51.432;6.880;2023-08-07T08:52:33;26.20;46.30
12060;DHT22;6091;51.432;6.880;2023-08-07T08:55:03;26.20;46.30
12060;DHT22;6091;51.432;6.880;2023-08-07T08:57:30;26.20;46.30
12060;DHT22;6091;51.432;6.880;2023-08-07T09:00:00;26.20;46.40
12060;DHT22;6091;51.432;6.880;2023-08-07T09:02:29;26.20;46.40
12060;DHT22;6091;51.432;6.880;2023-08-07T09:04:56;26.20;46.40
12060;DHT22;6091;51.432;6.880;2023-08-07T09:07:23;26.30;46.40
12060;DHT22;6091;51.432;6.880;2023-08-07T09:09:53;26.30;46.40
12060;DHT22;6091;51.432;6.880;2023-08-07T09:12:23;26.30;46.40
12060;DHT22;6091;51.432;6.880;2023-08-07T09:15:02;26.40;46.50
12060;DHT22;6091;51.432;6.880;2023-08-07T09:17:38;26.40;46.50
12060;DHT22;6091;51.432;6.880;2023-08-07T09:20:10;26.40;46.40
12060;DHT22;6091;51.432;6.880;2023-08-07T09:22:39;26.40;46.50
12060;DHT22;6091;51.432;6.880;2023-08-07T09:25:08;26.40;46.50
12060;DHT22;6091;51.432;6.880;2023-08-07T09:27:37;26.50;46.60
12060;DHT22;6091;51.432;6.880;2023-08-07T09:30:06;26.50;46.50
12060;DHT22;6091;51.432;6.880;2023-08-07T09:32:36;26.90;46.60
12060;DHT22;6091;51.432;6.880;2023-08-07T09:35:06;26.60;46.30
12060;DHT22;6091;51.432;6.880;2023-08-07T09:37:36;26.60;46.30
12060;DHT22;6091;51.432;6.880;2023-08-07T09:40:04;26.60;46.20
12060;DHT22;6091;51.432;6.880;2023-08-07T09:42:31;26.60;46.20
12060;DHT22;6091;51.432;6.880;2023-08-07T09:45:00;26.60;46.20
12060;DHT22;6091;51.432;6.880;2023-08-07T09:47:27;26.60;46.20
12060;DHT22;6091;51.432;6.880;2023-08-07T09:49:55;26.60;46.30
12060;DHT22;6091;51.432;6.880;2023-08-07T09:52:24;26.70;46.30
12060;DHT22;6091;51.432;6.880;2023-08-07T09:54:56;27.10;46.50
12060;DHT22;6091;51.432;6.880;2023-08-07T09:57:24;26.70;46.30
12060;DHT22;6091;51.432;6.880;2023-08-07T09:59:52;26.70;46.20
12060;DHT22;6091;51.432;6.880;2023-08-07T10:02:19;26.70;46.20
12060;DHT22;6091;51.432;6.880;2023-08-07T10:04:49;26.80;46.20
12060;DHT22;6091;51.432;6.880;2023-08-07T10:07:17;26.80;46.10
12060;DHT22;6091;51.432;6.880;2023-08-07T10:09:46;26.80;46.10
12060;DHT22;6091;51.432;6.880;2023-08-07T10:12:14;26.80;46.00
12060;DHT22;6091;51.432;6.880;2023-08-07T10:14:45;26.80;46.10
12060;DHT22;6091;51.432;6.880;2023-08-07T10:17:12;26.80;46.10
12060;DHT22;6091;51.432;6.880;2023-08-07T10:19:39;26.80;46.10
12060;DHT22;6091;51.432;6.880;2023-08-07T10:22:07;26.90;46.00
12060;DHT22;6091;51.432;6.880;2023-08-07T10:24:36;26.90;45.90
12060;DHT22;6091;51.432;6.880;2023-08-07T10:27:08;26.90;45.80
12060;DHT22;6091;51.432;6.880;2023-08-07T10:29:38;27.00;45.80
12060;DHT22;6091;51.432;6.880;2023-08-07T10:32:07;27.00;45.70
12060;DHT22;6091;51.432;6.880;2023-08-07T10:34:35;27.00;45.70
12060;DHT22;6091;51.432;6.880;2023-08-07T10:37:07;27.00;45.60
12060;DHT22;6091;51.432;6.880;2023-08-07T10:39:34;27.10;46.10
12060;DHT22;6091;51.432;6.880;2023-08-07T10:42:01;27.10;45.50
12060;DHT22;6091;51.432;6.880;2023-08-07T10:44:31;27.00;45.40
12060;DHT22;6091;51.432;6.880;2023-08-07T10:47:01;27.00;45.30
12060;DHT22;6091;51.432;6.880;2023-08-07T10:49:41;27.00;45.30
12060;DHT22;6091;51.432;6.880;2023-08-07T10:52:10;27.00;45.30
12060;DHT22;6091;51.432;6.880;2023-08-07T10:54:49;27.00;45.30
12060;DHT22;6091;51.432;6.880;2023-08-07T10:57:17;27.00;45.30
12060;DHT22;6091;51.432;6.880;2023-08-07T11:02:30;26.90;44.90
12060;DHT22;6091;51.432;6.880;2023-08-07T11:05:00;26.80;44.80
12060;DHT22;6091;51.432;6.880;2023-08-07T11:07:40;26.70;44.70
12060;DHT22;6091;51.432;6.880;2023-08-07T11:10:08;26.60;44.90
12060;DHT22;6091;51.432;6.880;2023-08-07T11:12:39;26.60;45.00
12060;DHT22;6091;51.432;6.880;2023-08-07T11:15:06;26.50;45.10
12060;DHT22;6091;51.432;6.880;2023-08-07T11:17:34;26.50;45.30
12060;DHT22;6091;51.432;6.880;2023-08-07T11:20:01;26.50;45.60
12060;DHT22;6091;51.432;6.880;2023-08-07T11:22:30;26.50;45.90
12060;DHT22;6091;51.432;6.880;2023-08-07T11:24:57;26.60;45.90
12060;DHT22;6091;51.432;6.880;2023-08-07T11:27:24;26.60;45.90
12060;DHT22;6091;51.432;6.880;2023-08-07T11:29:52;26.70;45.80
12060;DHT22;6091;51.432;6.880;2023-08-07T11:32:21;26.70;45.60
12060;DHT22;6091;51.432;6.880;2023-08-07T11:34:49;26.70;45.40
12060;DHT22;6091;51.432;6.880;2023-08-07T11:37:17;26.70;45.30
12060;DHT22;6091;51.432;6.880;2023-08-07T11:39:44;26.70;45.20
12060;DHT22;6091;51.432;6.880;2023-08-07T11:42:12;26.60;45.10
12060;DHT22;6091;51.432;6.880;2023-08-07T11:44:40;26.60;44.80
12060;DHT22;6091;51.432;6.880;2023-08-07T11:47:09;26.50;45.00
12060;DHT22;6091;51.432;6.880;2023-08-07T11:49:37;26.40;45.10
12060;DHT22;6091;51.432;6.880;2023-08-07T11:52:05;26.30;45.20
12060;DHT22;6091;51.432;6.880;2023-08-07T11:54:32;26.30;45.60
12060;DHT22;6091;51.432;6.880;2023-08-07T11:56:59;26.30;45.80
12060;DHT22;6091;51.432;6.880;2023-08-07T11:59:27;26.40;45.90
12060;DHT22;6091;51.432;6.880;2023-08-07T12:01:54;26.50;45.60
12060;DHT22;6091;51.432;6.880;2023-08-07T12:04:20;26.50;45.40
12060;DHT22;6091;51.432;6.880;2023-08-07T12:06:54;26.50;45.10
12060;DHT22;6091;51.432;6.880;2023-08-07T12:09:25;26.60;44.80
12060;DHT22;6091;51.432;6.880;2023-08-07T12:11:59;26.50;44.90
12060;DHT22;6091;51.432;6.880;2023-08-07T12:14:30;26.60;45.40
12060;DHT22;6091;51.432;6.880;2023-08-07T12:17:00;26.60;44.70
12060;DHT22;6091;51.432;6.880;2023-08-07T12:19:38;26.60;44.70
12060;DHT22;6091;51.432;6.880;2023-08-07T12:22:07;26.90;44.60
12060;DHT22;6091;51.432;6.880;2023-08-07T12:24:36;27.00;45.30
12060;DHT22;6091;51.432;6.880;2023-08-07T12:27:04;27.20;45.00
12060;DHT22;6091;51.432;6.880;2023-08-07T12:29:32;27.40;43.90
12060;DHT22;6091;51.432;6.880;2023-08-07T12:31:59;27.50;43.80
12060;DHT22;6091;51.432;6.880;2023-08-07T12:34:28;27.60;43.60
12060;DHT22;6091;51.432;6.880;2023-08-07T12:36:58;27.70;43.70
12060;DHT22;6091;51.432;6.880;2023-08-07T12:39:25;27.80;43.20
12060;DHT22;6091;51.432;6.880;2023-08-07T12:42:12;27.90;42.80
12060;DHT22;6091;51.432;6.880;2023-08-07T12:44:42;28.00;42.50
12060;DHT22;6091;51.432;6.880;2023-08-07T12:47:10;28.00;42.20
12060;DHT22;6091;51.432;6.880;2023-08-07T12:49:37;28.00;42.30
12060;DHT22;6091;51.432;6.880;2023-08-07T12:52:04;28.00;41.90
12060;DHT22;6091;51.432;6.880;2023-08-07T12:54:31;27.90;41.60
12060;DHT22;6091;51.432;6.880;2023-08-07T12:56:58;27.90;41.30
12060;DHT22;6091;51.432;6.880;2023-08-07T12:59:25;27.90;41.40
12060;DHT22;6091;51.432;6.880;2023-08-07T13:01:53;27.80;41.00
12060;DHT22;6091;51.432;6.880;2023-08-07T13:04:20;27.70;41.00
12060;DHT22;6091;51.432;6.880;2023-08-07T13:06:47;27.60;41.30
12060;DHT22;6091;51.432;6.880;2023-08-07T13:09:16;27.40;41.20
12060;DHT22;6091;51.432;6.880;2023-08-07T13:11:43;27.40;41.10
12060;DHT22;6091;51.432;6.880;2023-08-07T13:14:10;27.40;41.40
12060;DHT22;6091;51.432;6.880;2023-08-07T13:16:37;27.40;41.70
12060;DHT22;6091;51.432;6.880;2023-08-07T13:19:04;27.40;41.90
12060;DHT22;6091;51.432;6.880;2023-08-07T13:21:33;27.40;41.70
12060;DHT22;6091;51.432;6.880;2023-08-07T13:24:00;27.50;41.80
12060;DHT22;6091;51.432;6.880;2023-08-07T13:26:27;27.60;40.90
12060;DHT22;6091;51.432;6.880;2023-08-07T13:28:54;27.60;40.60
12060;DHT22;6091;51.432;6.880;2023-08-07T13:31:21;27.50;40.10
12060;DHT22;6091;51.432;6.880;2023-08-07T13:33:48;27.50;39.80
12060;DHT22;6091;51.432;6.880;2023-08-07T13:36:15;27.50;39.90
12060;DHT22;6091;51.432;6.880;2023-08-07T13:38:42;27.40;39.60
12060;DHT22;6091;51.432;6.880;2023-08-07T13:41:15;27.40;39.70
12060;DHT22;6091;51.432;6.880;2023-08-07T13:43:47;27.40;39.60
12060;DHT22;6091;51.432;6.880;2023-08-07T13:46:17;27.30;39.50
12060;DHT22;6091;51.432;6.880;2023-08-07T13:48:51;27.30;39.50
12060;DHT22;6091;51.432;6.880;2023-08-07T13:51:30;27.20;39.80
12060;DHT22;6091;51.432;6.880;2023-08-07T13:53:57;27.20;39.70
12060;DHT22;6091;51.432;6.880;2023-08-07T13:56:24;27.20;39.50
12060;DHT22;6091;51.432;6.880;2023-08-07T13:58:51;27.20;39.40
12060;DHT22;6091;51.432;6.880;2023-08-07T14:01:20;27.20;39.50
12060;DHT22;6091;51.432;6.880;2023-08-07T14:03:47;27.20;39.40
12060;DHT22;6091;51.432;6.880;2023-08-07T14:06:14;27.20;39.30
12060;DHT22;6091;51.432;6.880;2023-08-07T14:08:41;27.30;39.10
12060;DHT22;6091;51.432;6.880;2023-08-07T14:11:08;27.10;39.00
12060;DHT22;6091;51.432;6.880;2023-08-07T14:13:35;27.00;39.00
12060;DHT22;6091;51.432;6.880;2023-08-07T14:16:02;26.90;38.90
12060;DHT22;6091;51.432;6.880;2023-08-07T14:18:29;27.00;38.80
12060;DHT22;6091;51.432;6.880;2023-08-07T14:20:57;26.90;38.50
12060;DHT22;6091;51.432;6.880;2023-08-07T14:23:29;26.90;38.60
12060;DHT22;6091;51.432;6.880;2023-08-07T14:26:00;26.80;38.60
12060;DHT22;6091;51.432;6.880;2023-08-07T14:28:27;26.80;38.40
12060;DHT22;6091;51.432;6.880;2023-08-07T14:30:57;26.70;38.70
12060;DHT22;6091;51.432;6.880;2023-08-07T14:33:28;26.70;39.10
12060;DHT22;6091;51.432;6.880;2023-08-07T14:35:55;26.70;39.30
12060;DHT22;6091;51.432;6.880;2023-08-07T14:38:22;26.70;39.50
12060;DHT22;6091;51.432;6.880;2023-08-07T14:40:49;26.70;39.70
12060;DHT22;6091;51.432;6.880;2023-08-07T14:43:16;26.70;39.70
12060;DHT22;6091;51.432;6.880;2023-08-07T14:45:43;26.80;39.80
12060;DHT22;6091;51.432;6.880;2023-08-07T14:48:10;26.80;39.90
12060;DHT22;6091;51.432;6.880;2023-08-07T14:50:37;26.80;40.10
12060;DHT22;6091;51.432;6.880;2023-08-07T14:53:05;26.80;40.10
12060;DHT22;6091;51.432;6.880;2023-08-07T14:55:32;26.90;40.30
12060;DHT22;6091;51.432;6.880;2023-08-07T14:57:59;27.00;40.50
12060;DHT22;6091;51.432;6.880;2023-08-07T15:00:26;27.10;40.60
12060;DHT22;6091;51.432;6.880;2023-08-07T15:02:53;27.10;40.50
12060;DHT22;6091;51.432;6.880;2023-08-07T15:05:20;27.20;40.50
12060;DHT22;6091;51.432;6.880;2023-08-07T15:07:47;26.90;40.20
12060;DHT22;6091;51.432;6.880;2023-08-07T15:10:14;27.30;40.40
12060;DHT22;6091;51.432;6.880;2023-08-07T15:12:41;27.30;40.40
12060;DHT22;6091;51.432;6.880;2023-08-07T15:15:08;27.40;40.40
12060;DHT22;6091;51.432;6.880;2023-08-07T15:17:35;27.40;40.40
12060;DHT22;6091;51.432;6.880;2023-08-07T15:20:03;27.50;40.50
12060;DHT22;6091;51.432;6.880;2023-08-07T15:22:32;27.50;40.40
12060;DHT22;6091;51.432;6.880;2023-08-07T15:24:59;27.50;40.40
12060;DHT22;6091;51.432;6.880;2023-08-07T15:27:26;27.50;40.40
12060;DHT22;6091;51.432;6.880;2023-08-07T15:29:53;27.50;40.40
12060;DHT22;6091;51.432;6.880;2023-08-07T15:32:20;27.40;40.40
12060;DHT22;6091;51.432;6.880;2023-08-07T15:34:47;27.40;40.40
12060;DHT22;6091;51.432;6.880;2023-08-07T15:37:16;27.50;40.50
12060;DHT22;6091;51.432;6.880;2023-08-07T15:39:43;27.50;40.50
12060;DHT22;6091;51.432;6.880;2023-08-07T15:42:10;27.40;40.40
12060;DHT22;6091;51.432;6.880;2023-08-07T15:44:37;27.40;40.40
12060;DHT22;6091;51.432;6.880;2023-08-07T15:47:05;27.40;40.50
12060;DHT22;6091;51.432;6.880;2023-08-07T15:49:32;27.40;40.50
12060;DHT22;6091;51.432;6.880;2023-08-07T15:51:59;27.40;40.50
12060;DHT22;6091;51.432;6.880;2023-08-07T15:54:26;27.40;40.60
12060;DHT22;6091;51.432;6.880;2023-08-07T15:56:53;27.30;40.60
12060;DHT22;6091;51.432;6.880;2023-08-07T15:59:20;27.30;40.60
12060;DHT22;6091;51.432;6.880;2023-08-07T16:01:48;27.30;40.70
12060;DHT22;6091;51.432;6.880;2023-08-07T16:04:15;27.30;40.70
12060;DHT22;6091;51.432;6.880;2023-08-07T16:06:42;27.30;40.70